createdAt,value
2023-11-30T00:00:14.026Z,11.8
2023-11-30T00:01:30.315Z,13.5
2023-11-30T00:02:46.000Z,13.8
2023-11-30T00:04:02.907Z,12.8
2023-11-30T00:05:19.190Z,15
2023-11-30T00:06:35.505Z,13.8
2023-11-30T00:07:51.784Z,13.4
2023-11-30T00:09:08.077Z,12.8
2023-11-30T00:10:24.370Z,12.6
2023-11-30T00:11:40.665Z,14.1
2023-11-30T00:12:56.001Z,14.1
2023-11-30T00:15:28.580Z,13.5
2023-11-30T00:16:44.884Z,14
2023-11-30T00:18:01.162Z,14.3
2023-11-30T00:19:17.474Z,13.9
2023-11-30T00:20:32.778Z,14.4
2023-11-30T00:23:05.363Z,14.3
2023-11-30T00:24:21.655Z,16.5
2023-11-30T00:25:37.950Z,15.3
2023-11-30T00:26:54.260Z,14.5
2023-11-30T00:28:10.679Z,13.9
2023-11-30T00:29:26.988Z,14.8
2023-11-30T00:30:43.285Z,14.9
2023-11-30T00:31:59.564Z,15.7
2023-11-30T00:33:15.870Z,18.2
2023-11-30T00:34:32.155Z,15.4
2023-11-30T00:35:47.473Z,17.8
2023-11-30T00:37:03.780Z,17
2023-11-30T00:38:20.055Z,16.3
2023-11-30T00:39:36.359Z,15.9
2023-11-30T00:40:52.662Z,15.9
2023-11-30T00:42:08.951Z,15.7
2023-11-30T00:43:24.265Z,15.6
2023-11-30T00:44:40.551Z,16.9
2023-11-30T00:45:56.856Z,16.6
2023-11-30T00:47:13.148Z,16.5
2023-11-30T00:48:29.451Z,15
2023-11-30T00:49:45.739Z,15.6
2023-11-30T00:51:02.027Z,17.6
2023-11-30T00:53:34.625Z,16.8
2023-11-30T00:54:50.918Z,17.8
2023-11-30T00:56:07.221Z,15.9
2023-11-30T00:57:23.508Z,17.3
2023-11-30T00:58:39.816Z,16.2
2023-11-30T00:59:56.105Z,17.1
2023-11-30T01:01:12.389Z,17.5
2023-11-30T01:02:27.702Z,17.5
2023-11-30T01:03:44.011Z,16.2
2023-11-30T01:05:00.296Z,17.7
2023-11-30T01:06:16.591Z,16.3
2023-11-30T01:08:49.194Z,17.8
2023-11-30T01:11:21.774Z,16.4
2023-11-30T01:12:38.077Z,16.7
2023-11-30T01:13:54.367Z,16.3
2023-11-30T01:15:10.664Z,14.7
2023-11-30T01:17:43.244Z,16.8
2023-11-30T01:18:58.576Z,15.7
2023-11-30T01:20:14.864Z,15
2023-11-30T01:21:30.178Z,16.1
2023-11-30T01:24:02.758Z,17.2
2023-11-30T01:26:35.347Z,17.6
2023-11-30T01:27:51.647Z,19.8
2023-11-30T01:29:07.937Z,19.2
2023-11-30T01:31:40.537Z,19.5
2023-11-30T01:32:56.833Z,18.9
2023-11-30T01:34:13.113Z,19.8
2023-11-30T01:35:29.409Z,19.4
2023-11-30T01:36:45.714Z,18.1
2023-11-30T01:38:02.012Z,20.2
2023-11-30T01:39:18.425Z,20.5
2023-11-30T01:40:34.731Z,20.5
2023-11-30T01:41:51.012Z,20.5
2023-11-30T01:43:07.304Z,18.4
2023-11-30T01:44:23.599Z,18.1
2023-11-30T01:46:56.195Z,17.2
2023-11-30T01:48:12.483Z,21.2
2023-11-30T01:49:28.785Z,20.5
2023-11-30T01:50:45.071Z,19.6
2023-11-30T01:52:01.378Z,20.6
2023-11-30T01:53:17.660Z,19.8
2023-11-30T01:54:33.967Z,19.6
2023-11-30T01:55:50.264Z,19.2
2023-11-30T01:57:06.552Z,19.3
2023-11-30T01:58:22.843Z,20.5
2023-11-30T01:59:39.146Z,19.7
2023-11-30T02:02:11.747Z,20.7
2023-11-30T02:03:28.021Z,21.2
2023-11-30T02:04:44.331Z,20.6
2023-11-30T02:06:00.622Z,19.9
2023-11-30T02:07:15.929Z,19.9
2023-11-30T02:08:32.227Z,20.9
2023-11-30T02:09:48.525Z,19.3
2023-11-30T02:11:04.810Z,20.7
2023-11-30T02:12:21.119Z,19.3
2023-11-30T02:13:37.417Z,18.3
2023-11-30T02:14:52.727Z,18.5
2023-11-30T02:17:25.324Z,18.8
2023-11-30T02:18:41.613Z,20.3
2023-11-30T02:19:57.914Z,19.1
2023-11-30T02:21:14.195Z,19
2023-11-30T02:22:29.502Z,18.7
2023-11-30T02:23:45.803Z,19.7
2023-11-30T02:25:02.106Z,18.1
2023-11-30T02:26:18.399Z,19
2023-11-30T02:27:34.697Z,19.8
2023-11-30T02:28:50.986Z,17.3
2023-11-30T02:30:07.271Z,17.3
2023-11-30T02:31:23.568Z,18.4
2023-11-30T02:32:39.861Z,18.2
2023-11-30T02:33:56.167Z,16.6
2023-11-30T02:35:12.464Z,16.8
2023-11-30T02:36:28.764Z,18
2023-11-30T02:37:45.059Z,17.2
2023-11-30T02:39:01.469Z,17.3
2023-11-30T02:40:17.770Z,17.9
2023-11-30T02:41:34.060Z,17.2
2023-11-30T02:42:50.342Z,17.7
2023-11-30T02:44:06.642Z,17.9
2023-11-30T02:45:21.974Z,19.6
2023-11-30T02:46:38.264Z,19.3
2023-11-30T02:47:53.569Z,18.9
2023-11-30T02:49:09.881Z,19.6
2023-11-30T02:50:26.167Z,22
2023-11-30T02:51:42.465Z,20.2
2023-11-30T02:52:58.753Z,18.8
2023-11-30T02:54:15.051Z,17.6
2023-11-30T02:55:31.340Z,19.3
2023-11-30T02:56:47.652Z,18
2023-11-30T02:58:03.932Z,18.7
2023-11-30T02:59:20.227Z,20
2023-11-30T03:00:36.527Z,21.1
2023-11-30T03:03:09.125Z,19.2
2023-11-30T03:04:25.414Z,21.6
2023-11-30T03:05:41.713Z,20.3
2023-11-30T03:06:58.013Z,18.9
2023-11-30T03:08:14.303Z,22
2023-11-30T03:12:03.178Z,20.7
2023-11-30T03:13:19.480Z,21.4
2023-11-30T03:14:35.771Z,21.4
2023-11-30T03:15:52.061Z,21.2
2023-11-30T03:19:40.960Z,22
2023-11-30T03:20:57.254Z,22.5
2023-11-30T03:22:13.555Z,21.4
2023-11-30T03:23:29.843Z,21.1
2023-11-30T03:26:02.424Z,22.2
2023-11-30T03:27:18.727Z,23.4
2023-11-30T03:28:35.017Z,22.8
2023-11-30T03:29:51.318Z,21.8
2023-11-30T03:33:40.206Z,22.9
2023-11-30T03:34:56.569Z,23.6
2023-11-30T03:36:12.910Z,24.4
2023-11-30T03:38:45.633Z,26.7
2023-11-30T03:40:01.989Z,26.3
2023-11-30T03:41:18.341Z,30.5
2023-11-30T03:43:50.109Z,30.7
2023-11-30T03:45:06.460Z,30.7
2023-11-30T03:46:22.817Z,33.3
2023-11-30T03:48:55.538Z,28.4
2023-11-30T03:50:11.890Z,30.3
2023-11-30T03:51:28.253Z,30.9
2023-11-30T03:52:44.610Z,31.4
2023-11-30T03:55:17.315Z,28.9
2023-11-30T03:56:33.664Z,28.6
2023-11-30T03:57:50.024Z,28.1
2023-11-30T03:59:06.524Z,29.6
2023-11-30T04:00:22.876Z,30
2023-11-30T04:01:38.282Z,27.3
2023-11-30T04:02:54.640Z,28.9
2023-11-30T04:04:11.000Z,28.9
2023-11-30T04:08:00.082Z,28.5
2023-11-30T04:09:16.424Z,26.9
2023-11-30T04:10:32.793Z,28.4
2023-11-30T04:13:05.496Z,27.5
2023-11-30T04:14:21.859Z,30.9
2023-11-30T04:15:38.222Z,30.4
2023-11-30T04:18:10.933Z,30.7
2023-11-30T04:19:27.289Z,29.9
2023-11-30T04:20:43.636Z,33.3
2023-11-30T04:21:59.998Z,31.9
2023-11-30T04:25:48.135Z,35.2
2023-11-30T04:27:04.487Z,34.4
2023-11-30T04:29:37.201Z,37.5
2023-11-30T04:30:53.558Z,37
2023-11-30T04:32:08.993Z,40
2023-11-30T04:33:24.393Z,40.5
2023-11-30T04:35:57.098Z,41.6
2023-11-30T04:37:13.458Z,41.3
2023-11-30T04:38:29.820Z,47.2
2023-11-30T04:41:02.538Z,47.8
2023-11-30T04:42:18.891Z,48.8
2023-11-30T04:43:35.236Z,52.9
2023-11-30T04:47:24.317Z,55.3
2023-11-30T04:48:40.678Z,52.5
2023-11-30T04:49:57.158Z,55.7
2023-11-30T04:52:29.857Z,59.1
2023-11-30T04:53:46.215Z,62
2023-11-30T04:55:02.577Z,56.5
2023-11-30T04:56:18.934Z,58.7
2023-11-30T04:58:51.639Z,56.3
2023-11-30T05:00:08.015Z,54.5
2023-11-30T05:01:24.366Z,63.7
2023-11-30T05:06:29.786Z,55.4
2023-11-30T05:07:45.185Z,53.8
2023-11-30T05:09:01.541Z,52.7
2023-11-30T05:10:17.908Z,59.7
2023-11-30T05:11:34.259Z,62
2023-11-30T05:12:50.628Z,61.1
2023-11-30T05:15:23.332Z,60
2023-11-30T05:16:39.689Z,59.7
2023-11-30T05:17:56.048Z,62
2023-11-30T05:19:12.398Z,67.6
2023-11-30T05:21:45.109Z,70.7
2023-11-30T05:23:01.478Z,59.6
2023-11-30T05:24:17.841Z,64.3
2023-11-30T05:26:50.546Z,71.1
2023-11-30T05:29:23.253Z,82
2023-11-30T05:31:55.981Z,79.1
2023-11-30T05:33:11.373Z,78.1
2023-11-30T05:34:27.737Z,82.7
2023-11-30T05:35:44.096Z,90.3
2023-11-30T05:37:00.443Z,87.3
2023-11-30T05:38:16.801Z,96
2023-11-30T05:39:33.153Z,86
2023-11-30T05:40:49.522Z,92.2
2023-11-30T05:43:22.240Z,106.4
2023-11-30T05:44:38.593Z,90.6
2023-11-30T05:45:54.943Z,80.1
2023-11-30T05:47:11.297Z,76.6
2023-11-30T05:48:27.666Z,72.8
2023-11-30T05:50:59.420Z,79.6
2023-11-30T05:52:15.774Z,72.3
2023-11-30T05:53:32.146Z,72.7
2023-11-30T05:54:48.492Z,69.6
2023-11-30T05:56:04.852Z,71.9
2023-11-30T05:57:21.203Z,70.8
2023-11-30T05:58:37.562Z,70.1
2023-11-30T06:01:10.269Z,69.1
2023-11-30T06:02:26.636Z,70.7
2023-11-30T06:03:42.994Z,70.9
2023-11-30T06:04:59.353Z,69.2
2023-11-30T06:07:32.070Z,67.7
2023-11-30T06:10:04.714Z,76
2023-11-30T06:12:37.445Z,78.4
2023-11-30T06:13:52.807Z,72.3
2023-11-30T06:15:09.104Z,72.5
2023-11-30T06:16:25.399Z,75.3
2023-11-30T06:18:58.022Z,74.7
2023-11-30T06:20:14.326Z,70.6
2023-11-30T06:21:30.632Z,76.8
2023-11-30T06:22:46.924Z,73.6
2023-11-30T06:24:03.228Z,74.7
2023-11-30T06:25:19.537Z,76.7
2023-11-30T06:26:35.829Z,77.1
2023-11-30T06:27:52.152Z,71.6
2023-11-30T06:30:24.750Z,71.5
2023-11-30T06:31:40.089Z,72.8
2023-11-30T06:32:56.394Z,76
2023-11-30T06:34:12.702Z,77.5
2023-11-30T06:35:29.017Z,80.7
2023-11-30T06:36:45.301Z,80
2023-11-30T06:39:17.924Z,82.1
2023-11-30T06:40:34.223Z,80.2
2023-11-30T06:43:06.819Z,82.1
2023-11-30T06:44:23.124Z,86.9
2023-11-30T06:45:39.438Z,77.4
2023-11-30T06:46:55.733Z,86.9
2023-11-30T06:48:12.036Z,82.7
2023-11-30T06:50:43.687Z,77.6
2023-11-30T06:51:59.983Z,75.8
2023-11-30T06:53:16.289Z,70.2
2023-11-30T06:54:32.607Z,68.4
2023-11-30T06:55:48.900Z,72.9
2023-11-30T06:57:05.215Z,72.8
2023-11-30T06:58:21.507Z,76.9
2023-11-30T06:59:37.806Z,76.8
2023-11-30T07:00:53.172Z,77.4
2023-11-30T07:02:09.473Z,73.9
2023-11-30T07:03:25.780Z,81.3
2023-11-30T07:04:42.084Z,74.1
2023-11-30T07:07:14.690Z,74.2
2023-11-30T07:08:30.996Z,75
2023-11-30T07:09:47.300Z,83.6
2023-11-30T07:11:03.592Z,78.1
2023-11-30T07:12:19.892Z,75.3
2023-11-30T07:13:36.199Z,70.4
2023-11-30T07:17:25.099Z,59.5
2023-11-30T07:18:41.403Z,64.5
2023-11-30T07:21:14.011Z,69.7
2023-11-30T07:22:30.315Z,67.4
2023-11-30T07:23:45.674Z,65.2
2023-11-30T07:25:01.983Z,63.6
2023-11-30T07:27:34.581Z,68.1
2023-11-30T07:28:50.886Z,68.7
2023-11-30T07:30:07.177Z,63.7
2023-11-30T07:32:39.785Z,57.7
2023-11-30T07:33:56.085Z,59
2023-11-30T07:35:12.389Z,56
2023-11-30T07:36:28.706Z,51.4
2023-11-30T07:37:45.012Z,52.5
2023-11-30T07:39:01.307Z,49.8
2023-11-30T07:40:16.665Z,48.6
2023-11-30T07:41:32.961Z,50.5
2023-11-30T07:42:49.271Z,50.1
2023-11-30T07:44:05.562Z,53
2023-11-30T07:45:21.869Z,53.6
2023-11-30T07:46:38.176Z,58.5
2023-11-30T07:47:54.465Z,54.3
2023-11-30T07:50:27.081Z,60.2
2023-11-30T07:51:43.389Z,57.1
2023-11-30T07:52:59.682Z,56.1
2023-11-30T07:54:15.997Z,58.2
2023-11-30T07:55:32.296Z,57.4
2023-11-30T07:56:48.586Z,58.9
2023-11-30T07:58:03.937Z,59.3
2023-11-30T07:59:19.325Z,59.2
2023-11-30T08:00:35.615Z,64
2023-11-30T08:01:51.911Z,62.8
2023-11-30T08:03:07.277Z,61.3
2023-11-30T08:06:56.174Z,65.9
2023-11-30T08:08:12.489Z,63.2
2023-11-30T08:09:28.779Z,61
2023-11-30T08:10:45.089Z,64.8
2023-11-30T08:13:17.686Z,56.3
2023-11-30T08:14:33.992Z,58.6
2023-11-30T08:15:50.305Z,56.1
2023-11-30T08:17:05.674Z,56.7
2023-11-30T08:18:21.977Z,55.4
2023-11-30T08:19:38.284Z,54.1
2023-11-30T08:20:53.633Z,56.4
2023-11-30T08:22:09.921Z,52.1
2023-11-30T08:23:26.241Z,50.9
2023-11-30T08:24:42.540Z,52.7
2023-11-30T08:25:58.848Z,49.5
2023-11-30T08:29:47.748Z,45.9
2023-11-30T08:31:04.045Z,43.5
2023-11-30T08:32:20.354Z,40.6
2023-11-30T08:33:36.657Z,46.3
2023-11-30T08:36:09.270Z,41.9
2023-11-30T08:37:24.613Z,42.8
2023-11-30T08:38:40.912Z,45.2
2023-11-30T08:39:57.215Z,50.7
2023-11-30T08:41:13.523Z,50.4
2023-11-30T08:42:29.824Z,52.6
2023-11-30T08:43:46.132Z,47.7
2023-11-30T08:45:02.430Z,44.4
2023-11-30T08:47:35.037Z,44.1
2023-11-30T08:48:51.334Z,42.3
2023-11-30T08:50:07.649Z,41.7
2023-11-30T08:52:40.242Z,40
2023-11-30T08:53:56.556Z,41.1
2023-11-30T08:55:11.894Z,40.1
2023-11-30T08:56:28.209Z,41.4
2023-11-30T08:59:00.806Z,42.1
2023-11-30T09:00:17.104Z,39.7
2023-11-30T09:01:33.417Z,40.1
2023-11-30T09:02:49.716Z,38.5
2023-11-30T09:04:06.010Z,38.9
2023-11-30T09:05:22.319Z,38.9
2023-11-30T09:06:38.614Z,39.5
2023-11-30T09:07:54.929Z,38.1
2023-11-30T09:10:27.539Z,37.8
2023-11-30T09:11:42.885Z,38.2
2023-11-30T09:12:59.187Z,39.3
2023-11-30T09:14:15.491Z,38.4
2023-11-30T09:15:31.796Z,37.5
2023-11-30T09:16:48.098Z,38.8
2023-11-30T09:18:04.401Z,38.2
2023-11-30T09:19:20.706Z,38.7
2023-11-30T09:20:37.008Z,35.4
2023-11-30T09:21:53.302Z,36.4
2023-11-30T09:23:09.600Z,36.5
2023-11-30T09:24:25.902Z,33.9
2023-11-30T09:25:41.271Z,33.9
2023-11-30T09:26:56.619Z,34.8
2023-11-30T09:28:12.939Z,34.5
2023-11-30T09:29:29.000Z,33.5
2023-11-30T09:30:45.532Z,34.9
2023-11-30T09:32:01.834Z,33.1
2023-11-30T09:33:18.149Z,34.1
2023-11-30T09:34:34.447Z,32.4
2023-11-30T09:35:50.746Z,33.6
2023-11-30T09:37:07.053Z,33.2
2023-11-30T09:38:22.421Z,33
2023-11-30T09:39:38.847Z,32.3
2023-11-30T09:40:55.152Z,31.5
2023-11-30T09:42:11.461Z,32.7
2023-11-30T09:44:44.059Z,32.8
2023-11-30T09:46:00.365Z,33.7
2023-11-30T09:47:16.663Z,30.6
2023-11-30T09:48:32.972Z,32.7
2023-11-30T09:49:49.267Z,32.8
2023-11-30T09:51:05.565Z,31.6
2023-11-30T09:52:21.866Z,33.6
2023-11-30T09:53:38.170Z,31.6
2023-11-30T09:56:10.784Z,31.8
2023-11-30T09:57:26.162Z,30.5
2023-11-30T09:58:42.460Z,32.7
2023-11-30T09:59:57.806Z,31.5
2023-11-30T10:01:14.104Z,30.9
2023-11-30T10:05:03.000Z,30.1
2023-11-30T10:07:35.622Z,30.6
2023-11-30T10:08:51.928Z,30.9
2023-11-30T10:10:08.219Z,28.2
2023-11-30T10:12:40.832Z,28.7
2023-11-30T10:13:57.139Z,31.2
2023-11-30T10:15:12.000Z,28.7
2023-11-30T10:16:28.927Z,28.7
2023-11-30T10:17:45.236Z,26.4
2023-11-30T10:20:17.831Z,26.9
2023-11-30T10:21:34.130Z,27.8
2023-11-30T10:22:50.446Z,27.2
2023-11-30T10:24:06.738Z,27.5
2023-11-30T10:25:23.048Z,26.5
2023-11-30T10:26:39.356Z,25.2
2023-11-30T10:27:55.658Z,25.6
2023-11-30T10:29:11.965Z,26.6
2023-11-30T10:30:28.254Z,27.1
2023-11-30T10:31:44.564Z,23.7
2023-11-30T10:33:00.858Z,25.4
2023-11-30T10:35:32.526Z,26.7
2023-11-30T10:36:48.809Z,26.4
2023-11-30T10:38:05.127Z,28.3
2023-11-30T10:39:21.428Z,27.6
2023-11-30T10:40:37.726Z,27.7
2023-11-30T10:41:54.026Z,26.3
2023-11-30T10:43:10.334Z,25.4
2023-11-30T10:45:42.945Z,26
2023-11-30T10:46:59.236Z,25.7
2023-11-30T10:48:15.541Z,24.9
2023-11-30T10:49:31.835Z,25
2023-11-30T10:50:48.262Z,25.5
2023-11-30T10:52:04.572Z,24.8
2023-11-30T10:53:20.863Z,25.3
2023-11-30T10:54:37.172Z,25.8
2023-11-30T10:55:53.471Z,24.5
2023-11-30T10:57:09.789Z,24.3
2023-11-30T10:58:26.075Z,25.6
2023-11-30T10:59:42.390Z,23.3
2023-11-30T11:00:58.691Z,25.7
2023-11-30T11:02:14.055Z,26.7
2023-11-30T11:03:30.366Z,26
2023-11-30T11:04:45.717Z,24.8
2023-11-30T11:06:02.006Z,27.3
2023-11-30T11:07:18.323Z,26.8
2023-11-30T11:08:34.626Z,26.8
2023-11-30T11:09:50.915Z,26.9
2023-11-30T11:11:07.234Z,25.7
2023-11-30T11:12:23.523Z,27.4
2023-11-30T11:13:39.836Z,27.4
2023-11-30T11:14:56.128Z,26.1
2023-11-30T11:16:11.508Z,29.2
2023-11-30T11:17:26.867Z,29
2023-11-30T11:18:43.156Z,27.7
2023-11-30T11:19:59.477Z,27.6
2023-11-30T11:21:15.774Z,29.2
2023-11-30T11:22:32.080Z,29.1
2023-11-30T11:23:48.370Z,28
2023-11-30T11:25:04.687Z,27.8
2023-11-30T11:26:20.977Z,29.2
2023-11-30T11:27:37.292Z,31
2023-11-30T11:28:53.589Z,29.9
2023-11-30T11:30:09.878Z,30.3
2023-11-30T11:31:26.187Z,29.3
2023-11-30T11:32:42.486Z,30.3
2023-11-30T11:33:58.797Z,30.8
2023-11-30T11:35:14.136Z,29.1
2023-11-30T11:36:30.442Z,28.8
2023-11-30T11:39:03.047Z,29.8
2023-11-30T11:40:19.359Z,29
2023-11-30T11:41:35.662Z,28.8
2023-11-30T11:42:51.957Z,29
2023-11-30T11:44:08.271Z,27.2
2023-11-30T11:45:24.570Z,30.6
2023-11-30T11:46:40.875Z,28.9
2023-11-30T11:47:57.178Z,29.1
2023-11-30T11:50:29.781Z,29.4
2023-11-30T11:51:45.127Z,29.2
2023-11-30T11:53:01.429Z,29.3
2023-11-30T11:55:34.036Z,29.8
2023-11-30T11:56:49.414Z,30.7
2023-11-30T11:58:05.822Z,28.6
2023-11-30T11:59:22.134Z,30.7
2023-11-30T12:01:54.745Z,28.1
2023-11-30T12:03:11.031Z,28.7
2023-11-30T12:04:27.341Z,30.4
2023-11-30T12:06:59.957Z,29.9
2023-11-30T12:08:16.252Z,27.7
2023-11-30T12:09:32.547Z,30
2023-11-30T12:10:48.865Z,29
2023-11-30T12:13:21.456Z,29
2023-11-30T12:14:36.835Z,27.9
2023-11-30T12:15:52.170Z,29.2
2023-11-30T12:18:24.794Z,28.6
2023-11-30T12:19:41.091Z,28.1
2023-11-30T12:20:57.399Z,25.7
2023-11-30T12:22:13.687Z,25.2
2023-11-30T12:23:29.982Z,26.8
2023-11-30T12:24:46.296Z,29.3
2023-11-30T12:26:02.592Z,27.8
2023-11-30T12:27:18.897Z,27.7
2023-11-30T12:29:51.503Z,28.9
2023-11-30T12:31:07.799Z,28.9
2023-11-30T12:32:24.101Z,28.9
2023-11-30T12:33:39.467Z,28.6
2023-11-30T12:34:55.761Z,29.1
2023-11-30T12:38:44.668Z,29.8
2023-11-30T12:40:00.959Z,31.1
2023-11-30T12:41:17.274Z,30.6
2023-11-30T12:42:33.575Z,28.9
2023-11-30T12:43:49.868Z,30.2
2023-11-30T12:45:06.179Z,29.6
2023-11-30T12:48:55.085Z,30.4
2023-11-30T12:50:11.399Z,30.7
2023-11-30T12:51:26.750Z,31.9
2023-11-30T12:52:43.037Z,32.8
2023-11-30T12:53:59.340Z,33.6
2023-11-30T12:55:15.638Z,33.6
2023-11-30T12:56:31.948Z,35
2023-11-30T12:59:04.551Z,32.1
2023-11-30T13:00:20.865Z,30.7
2023-11-30T13:01:37.168Z,30.3
2023-11-30T13:02:53.453Z,29.5
2023-11-30T13:04:09.778Z,27.4
2023-11-30T13:05:26.068Z,28.1
2023-11-30T13:06:42.372Z,30.1
2023-11-30T13:07:57.726Z,30.7
2023-11-30T13:11:46.618Z,28.6
2023-11-30T13:13:02.940Z,27.6
2023-11-30T13:15:35.541Z,28.4
2023-11-30T13:16:51.846Z,27.8
2023-11-30T13:18:08.140Z,28.1
2023-11-30T13:19:24.440Z,27.5
2023-11-30T13:21:57.044Z,29
2023-11-30T13:23:13.357Z,28
2023-11-30T13:24:29.770Z,29
2023-11-30T13:25:46.083Z,30.5
2023-11-30T13:27:02.371Z,29.6
2023-11-30T13:28:18.673Z,30.3
2023-11-30T13:29:34.979Z,31
2023-11-30T13:30:51.281Z,31.7
2023-11-30T13:33:23.901Z,29.7
2023-11-30T13:34:40.190Z,30.5
2023-11-30T13:35:56.491Z,31.4
2023-11-30T13:38:29.111Z,32.6
2023-11-30T13:41:01.715Z,32.3
2023-11-30T13:42:17.059Z,30.3
2023-11-30T13:44:49.666Z,31.4
2023-11-30T13:46:05.968Z,30.7
2023-11-30T13:48:38.580Z,32.1
2023-11-30T13:49:54.872Z,32.4
2023-11-30T13:51:11.184Z,33.4
2023-11-30T13:52:27.473Z,31.6
2023-11-30T13:53:43.777Z,31.3
2023-11-30T13:55:00.083Z,33.4
2023-11-30T13:56:16.395Z,32.9
2023-11-30T13:57:32.684Z,32.7
2023-11-30T13:58:48.032Z,34
2023-11-30T14:01:20.641Z,35.7
2023-11-30T14:02:36.940Z,36.3
2023-11-30T14:03:53.256Z,38
2023-11-30T14:05:09.558Z,37.4
2023-11-30T14:06:25.846Z,37.5
2023-11-30T14:07:42.151Z,36.1
2023-11-30T14:08:58.466Z,34.5
2023-11-30T14:10:14.769Z,34
2023-11-30T14:12:47.370Z,35.5
2023-11-30T14:14:03.658Z,36.4
2023-11-30T14:15:19.967Z,37.5
2023-11-30T14:16:36.391Z,35.6
2023-11-30T14:17:52.692Z,35.8
2023-11-30T14:20:25.307Z,38.7
2023-11-30T14:21:41.612Z,38.3
2023-11-30T14:22:57.904Z,38.5
2023-11-30T14:24:14.209Z,38.4
2023-11-30T14:25:30.519Z,37.5
2023-11-30T14:26:46.821Z,38.8
2023-11-30T14:28:03.125Z,40.4
2023-11-30T14:29:19.419Z,40
2023-11-30T14:30:35.718Z,39.1
2023-11-30T14:31:52.032Z,39.3
2023-11-30T14:33:07.380Z,38.8
2023-11-30T14:35:39.988Z,38.9
2023-11-30T14:36:56.288Z,39.4
2023-11-30T14:38:12.574Z,41.2
2023-11-30T14:39:28.879Z,39.3
2023-11-30T14:40:45.191Z,38
2023-11-30T14:42:01.488Z,40.5
2023-11-30T14:43:17.798Z,39.4
2023-11-30T14:44:34.100Z,39.5
2023-11-30T14:45:50.401Z,40.7
2023-11-30T14:47:06.853Z,41.3
2023-11-30T14:48:22.190Z,40.8
2023-11-30T14:49:38.502Z,40
2023-11-30T14:50:54.801Z,42.1
2023-11-30T14:52:11.094Z,39.7
2023-11-30T14:53:27.408Z,42.3
2023-11-30T14:54:43.701Z,41.1
2023-11-30T14:56:00.004Z,38.6
2023-11-30T14:58:32.607Z,42.6
2023-11-30T14:59:48.913Z,38.3
2023-11-30T15:01:05.227Z,39.2
2023-11-30T15:02:21.532Z,39.7
2023-11-30T15:03:37.822Z,40
2023-11-30T15:04:54.244Z,40.9
2023-11-30T15:06:10.553Z,39.1
2023-11-30T15:08:43.148Z,37.7
2023-11-30T15:09:58.519Z,36.9
2023-11-30T15:11:14.824Z,38
2023-11-30T15:12:30.186Z,38.2
2023-11-30T15:13:46.479Z,38.9
2023-11-30T15:15:02.787Z,38.3
2023-11-30T15:16:19.089Z,39.9
2023-11-30T15:17:35.382Z,41.7
2023-11-30T15:18:51.692Z,41.4
2023-11-30T15:21:24.301Z,42.5
2023-11-30T15:22:40.592Z,42.3
2023-11-30T15:23:56.907Z,42.9
2023-11-30T15:25:13.215Z,43
2023-11-30T15:27:45.816Z,43
2023-11-30T15:29:01.168Z,41.8
2023-11-30T15:32:50.066Z,45.1
2023-11-30T15:34:05.422Z,48.2
2023-11-30T15:35:21.743Z,46.4
2023-11-30T15:36:38.026Z,48.3
2023-11-30T15:37:54.329Z,50.8
2023-11-30T15:39:10.704Z,50.5
2023-11-30T15:40:27.044Z,46.7
2023-11-30T15:41:43.418Z,50.9
2023-11-30T15:42:59.773Z,47.4
2023-11-30T15:44:16.118Z,47.7
2023-11-30T15:45:32.482Z,46.5
2023-11-30T15:46:48.843Z,49.5
2023-11-30T15:48:05.182Z,49.9
2023-11-30T15:51:54.271Z,49.7
2023-11-30T15:53:10.628Z,52.8
2023-11-30T15:54:26.015Z,54.2
2023-11-30T15:55:42.383Z,50.9
2023-11-30T15:56:58.742Z,53.2
2023-11-30T15:58:15.083Z,56.8
2023-11-30T15:59:31.457Z,54.9
2023-11-30T16:00:47.797Z,55.3
2023-11-30T16:02:04.172Z,55.8
2023-11-30T16:03:20.511Z,57.2
2023-11-30T16:04:36.885Z,57.9
2023-11-30T16:07:09.597Z,56.4
2023-11-30T16:08:25.950Z,59.3
2023-11-30T16:09:42.310Z,59.6
2023-11-30T16:10:58.770Z,57.7
2023-11-30T16:13:31.496Z,58.2
2023-11-30T16:14:47.850Z,61.6
2023-11-30T16:16:04.196Z,56.7
2023-11-30T16:17:20.566Z,57.2
2023-11-30T16:18:36.924Z,59.1
2023-11-30T16:19:53.280Z,59.3
2023-11-30T16:21:09.640Z,58
2023-11-30T16:23:42.339Z,57.9
2023-11-30T16:24:58.697Z,55.1
2023-11-30T16:26:15.060Z,55
2023-11-30T16:27:31.000Z,55.4
2023-11-30T16:28:46.812Z,57.3
2023-11-30T16:30:03.176Z,53.7
2023-11-30T16:31:19.536Z,54.9
2023-11-30T16:32:35.888Z,51.9
2023-11-30T16:33:52.245Z,50.4
2023-11-30T16:36:24.957Z,51.9
2023-11-30T16:37:41.308Z,54.8
2023-11-30T16:38:57.671Z,55.7
2023-11-30T16:41:30.397Z,55.8
2023-11-30T16:42:46.749Z,55.2
2023-11-30T16:44:03.101Z,55.4
2023-11-30T16:45:18.511Z,57.4
2023-11-30T16:46:34.858Z,57.5
2023-11-30T16:49:07.578Z,55.4
2023-11-30T16:50:23.929Z,59.6
2023-11-30T16:51:40.292Z,59.2
2023-11-30T16:52:56.637Z,58.4
2023-11-30T16:54:12.997Z,59.1
2023-11-30T16:55:29.352Z,57.3
2023-11-30T16:56:45.707Z,59
2023-11-30T16:58:02.079Z,63.4
2023-11-30T16:59:18.419Z,58.4
2023-11-30T17:00:34.791Z,61.7
2023-11-30T17:01:50.190Z,63.5
2023-11-30T17:04:22.890Z,65.2
2023-11-30T17:05:39.258Z,66.5
2023-11-30T17:06:55.607Z,66.5
2023-11-30T17:08:11.967Z,65.7
2023-11-30T17:09:28.335Z,72.8
2023-11-30T17:10:44.683Z,66.5
2023-11-30T17:12:01.042Z,70
2023-11-30T17:13:17.403Z,69.2
2023-11-30T17:15:50.113Z,69.9
2023-11-30T17:17:06.473Z,70.9
2023-11-30T17:18:22.813Z,75.6
2023-11-30T17:19:39.295Z,68.4
2023-11-30T17:22:12.019Z,74.9
2023-11-30T17:23:28.363Z,74.9
2023-11-30T17:24:44.728Z,72.2
2023-11-30T17:26:01.074Z,83.9
2023-11-30T17:27:17.441Z,82.6
2023-11-30T17:28:33.805Z,80.2
2023-11-30T17:29:50.147Z,79.3
2023-11-30T17:31:06.511Z,84
2023-11-30T17:33:39.218Z,83.3
2023-11-30T17:34:55.585Z,83.4
2023-11-30T17:36:12.051Z,84
2023-11-30T17:38:44.771Z,80.6
2023-11-30T17:40:01.120Z,83.3
2023-11-30T17:41:17.475Z,75.9
2023-11-30T17:42:33.851Z,78.1
2023-11-30T17:43:50.206Z,83.2
2023-11-30T17:45:06.564Z,79.9
2023-11-30T17:46:22.909Z,81.5
2023-11-30T17:47:39.261Z,77.7
2023-11-30T17:48:55.628Z,70.5
2023-11-30T17:50:11.983Z,74.4
2023-11-30T17:51:28.340Z,75.3
2023-11-30T17:52:43.753Z,72.5
2023-11-30T17:54:00.104Z,69.6
2023-11-30T17:57:49.177Z,66.2
2023-11-30T17:59:05.524Z,62.7
2023-11-30T18:00:21.890Z,63.2
2023-11-30T18:01:38.244Z,67.6
2023-11-30T18:02:54.600Z,72.5
2023-11-30T18:04:10.956Z,67.9
2023-11-30T18:05:27.312Z,66.7
2023-11-30T18:08:00.015Z,62.5
2023-11-30T18:09:15.426Z,60.7
2023-11-30T18:10:31.775Z,65.6
2023-11-30T18:11:48.146Z,61.7
2023-11-30T18:13:04.503Z,60.5
2023-11-30T18:16:53.565Z,62.3
2023-11-30T18:19:26.279Z,64.5
2023-11-30T18:20:42.628Z,63.4
2023-11-30T18:21:58.995Z,60.9
2023-11-30T18:23:15.348Z,62.6
2023-11-30T18:24:31.707Z,59.7
2023-11-30T18:25:47.111Z,64.5
2023-11-30T18:27:03.457Z,61.9
2023-11-30T18:28:19.818Z,63.2
2023-11-30T18:30:52.534Z,61.3
2023-11-30T18:32:08.889Z,61.9
2023-11-30T18:33:25.248Z,61.2
2023-11-30T18:35:57.965Z,56.5
2023-11-30T18:38:30.675Z,65.9
2023-11-30T18:39:47.037Z,66.4
2023-11-30T18:42:19.753Z,69.5
2023-11-30T18:43:35.153Z,66.5
2023-11-30T18:44:51.499Z,67.9
2023-11-30T18:46:07.862Z,71.6
2023-11-30T18:47:24.226Z,65
2023-11-30T18:48:40.574Z,66
2023-11-30T18:49:56.940Z,73.4
2023-11-30T18:51:13.301Z,68.4
2023-11-30T18:53:46.004Z,62.4
2023-11-30T18:55:02.365Z,69.4
2023-11-30T18:56:18.708Z,63.6
2023-11-30T18:57:35.072Z,66.8
2023-11-30T18:58:51.433Z,62.4
2023-11-30T19:01:24.142Z,64.4
2023-11-30T19:02:39.548Z,66.7
2023-11-30T19:03:55.910Z,63.8
2023-11-30T19:05:12.269Z,65.7
2023-11-30T19:06:28.613Z,65.8
2023-11-30T19:07:44.975Z,67.8
2023-11-30T19:09:01.331Z,64.4
2023-11-30T19:10:17.682Z,70.3
2023-11-30T19:11:34.049Z,66.8
2023-11-30T19:12:50.401Z,71.3
2023-11-30T19:14:06.760Z,70.6
2023-11-30T19:15:23.117Z,77.3
2023-11-30T19:16:39.472Z,79.2
2023-11-30T19:17:55.824Z,74
2023-11-30T19:19:12.191Z,78.5
2023-11-30T19:21:43.975Z,74.8
2023-11-30T19:22:59.377Z,76.1
2023-11-30T19:24:15.735Z,78.6
2023-11-30T19:25:32.087Z,75.9
2023-11-30T19:28:04.804Z,79.6
2023-11-30T19:29:21.160Z,78.4
2023-11-30T19:30:37.513Z,79.9
2023-11-30T19:31:53.874Z,80.9
2023-11-30T19:33:10.214Z,80.4
2023-11-30T19:34:26.590Z,80.8
2023-11-30T19:35:42.943Z,71.4
2023-11-30T19:38:15.657Z,74.3
2023-11-30T19:39:31.048Z,73.3
2023-11-30T19:40:47.409Z,78.2
2023-11-30T19:42:03.768Z,80.9
2023-11-30T19:43:20.123Z,77.3
2023-11-30T19:44:36.482Z,84.5
2023-11-30T19:45:52.831Z,91.2
2023-11-30T19:47:09.199Z,79.1
2023-11-30T19:48:25.560Z,86
2023-11-30T19:50:57.322Z,86.6
2023-11-30T19:52:12.735Z,81.1
2023-11-30T19:53:29.095Z,83.8
2023-11-30T19:54:45.460Z,91.3
2023-11-30T19:56:01.796Z,90.6
2023-11-30T19:57:18.170Z,84.9
2023-11-30T19:58:34.514Z,92.2
2023-11-30T19:59:50.879Z,89.5
2023-11-30T20:02:23.584Z,92.8
2023-11-30T20:03:39.956Z,92.6